sensor_id;sensor_type;location;lat;lon;timestamp;pressure;altitude;pressure_sealevel;temperature;humidity
50430;BME280;36359;41.556;-8.418;2023-11-19T00:00:50;61906.56;;;13.40;100.00
50430;BME280;36359;41.556;-8.418;2023-11-19T00:03:17;61931.22;;;13.59;100.00
50430;BME280;36359;41.556;-8.418;2023-11-19T00:05:43;61935.47;;;13.63;100.00
50430;BME280;36359;41.556;-8.418;2023-11-19T00:08:10;61917.28;;;13.48;100.00
50430;BME280;36359;41.556;-8.418;2023-11-19T00:10:35;61896.94;;;13.31;100.00
50430;BME280;36359;41.556;-8.418;2023-11-19T00:13:01;61929.56;;;13.60;100.00
50430;BME280;36359;41.556;-8.418;2023-11-19T00:15:28;61900.69;;;13.32;100.00
50430;BME280;36359;41.556;-8.418;2023-11-19T00:17:54;61931.72;;;13.62;100.00
50430;BME280;36359;41.556;-8.418;2023-11-19T00:20:20;61957.38;;;13.86;100.00
50430;BME280;36359;41.556;-8.418;2023-11-19T00:22:48;61955.19;;;13.87;100.00
50430;BME280;36359;41.556;-8.418;2023-11-19T00:25:17;61970.75;;;13.97;100.00
50430;BME280;36359;41.556;-8.418;2023-11-19T00:27:43;61973.94;;;14.02;100.00
50430;BME280;36359;41.556;-8.418;2023-11-19T00:30:13;61980.31;;;14.11;100.00
50430;BME280;36359;41.556;-8.418;2023-11-19T00:32:40;61979.31;;;14.05;100.00
50430;BME280;36359;41.556;-8.418;2023-11-19T00:35:07;61979.81;;;14.08;100.00
50430;BME280;36359;41.556;-8.418;2023-11-19T00:37:33;61972.84;;;14.04;100.00
50430;BME280;36359;41.556;-8.418;2023-11-19T00:39:59;61981.44;;;14.07;100.00
50430;BME280;36359;41.556;-8.418;2023-11-19T00:42:24;61993.22;;;14.18;100.00
50430;BME280;36359;41.556;-8.418;2023-11-19T00:44:51;61981.41;;;14.12;100.00
50430;BME280;36359;41.556;-8.418;2023-11-19T00:47:17;61999.06;;;14.26;100.00
50430;BME280;36359;41.556;-8.418;2023-11-19T00:49:46;62022.06;;;14.48;100.00
50430;BME280;36359;41.556;-8.418;2023-11-19T00:52:14;62026.91;;;14.53;100.00
50430;BME280;36359;41.556;-8.418;2023-11-19T00:54:41;62021.53;;;14.48;100.00
50430;BME280;36359;41.556;-8.418;2023-11-19T00:57:07;62016.72;;;14.41;100.00
50430;BME280;36359;41.556;-8.418;2023-11-19T00:59:33;62027.44;;;14.53;100.00
50430;BME280;36359;41.556;-8.418;2023-11-19T01:01:59;62019.38;;;14.46;100.00
50430;BME280;36359;41.556;-8.418;2023-11-19T01:04:35;62001.69;;;14.31;100.00
50430;BME280;36359;41.556;-8.418;2023-11-19T01:07:02;61968.63;;;13.95;100.00
50430;BME280;36359;41.556;-8.418;2023-11-19T01:09:32;61933.34;;;13.61;100.00
50430;BME280;36359;41.556;-8.418;2023-11-19T01:12:00;61930.13;;;13.58;100.00
50430;BME280;36359;41.556;-8.418;2023-11-19T01:14:26;61927.41;;;13.60;100.00
50430;BME280;36359;41.556;-8.418;2023-11-19T01:16:52;61934.88;;;13.68;100.00
50430;BME280;36359;41.556;-8.418;2023-11-19T01:19:22;61946.16;;;13.73;100.00
50430;BME280;36359;41.556;-8.418;2023-11-19T01:21:50;61943.44;;;13.76;100.00
50430;BME280;36359;41.556;-8.418;2023-11-19T01:24:16;61970.72;;;13.99;100.00
50430;BME280;36359;41.556;-8.418;2023-11-19T01:26:43;61955.78;;;13.82;100.00
50430;BME280;36359;41.556;-8.418;2023-11-19T01:29:13;61927.97;;;13.56;100.00
50430;BME280;36359;41.556;-8.418;2023-11-19T01:31:42;61994.78;;;14.22;100.00
50430;BME280;36359;41.556;-8.418;2023-11-19T01:34:08;61993.13;;;14.23;100.00
50430;BME280;36359;41.556;-8.418;2023-11-19T01:36:34;61958.44;;;13.88;100.00
50430;BME280;36359;41.556;-8.418;2023-11-19T01:39:00;61940.75;;;13.73;100.00
50430;BME280;36359;41.556;-8.418;2023-11-19T01:41:26;61952.53;;;13.82;100.00
50430;BME280;36359;41.556;-8.418;2023-11-19T01:43:52;61958.44;;;13.85;100.00
50430;BME280;36359;41.556;-8.418;2023-11-19T01:46:18;61964.84;;;13.94;100.00
50430;BME280;36359;41.556;-8.418;2023-11-19T01:48:45;61954.69;;;13.84;100.00
50430;BME280;36359;41.556;-8.418;2023-11-19T01:51:12;61951.44;;;13.83;100.00
50430;BME280;36359;41.556;-8.418;2023-11-19T01:53:43;61921.56;;;13.50;100.00
50430;BME280;36359;41.556;-8.418;2023-11-19T01:56:09;61929.56;;;13.60;100.00
50430;BME280;36359;41.556;-8.418;2023-11-19T01:58:38;61894.81;;;13.29;100.00
50430;BME280;36359;41.556;-8.418;2023-11-19T02:01:09;61907.69;;;13.36;100.00
50430;BME280;36359;41.556;-8.418;2023-11-19T02:03:35;61908.72;;;13.40;100.00
50430;BME280;36359;41.556;-8.418;2023-11-19T02:06:00;61910.34;;;13.42;100.00
50430;BME280;36359;41.556;-8.418;2023-11-19T02:08:26;61923.69;;;13.54;100.00
50430;BME280;36359;41.556;-8.418;2023-11-19T02:10:52;61931.13;;;13.64;100.00
50430;BME280;36359;41.556;-8.418;2023-11-19T02:13:23;61942.41;;;13.72;100.00
50430;BME280;36359;41.556;-8.418;2023-11-19T02:15:50;61941.88;;;13.72;100.00
50430;BME280;36359;41.556;-8.418;2023-11-19T02:18:27;61939.19;;;13.69;100.00
50430;BME280;36359;41.556;-8.418;2023-11-19T02:20:54;61940.28;;;13.68;100.00
50430;BME280;36359;41.556;-8.418;2023-11-19T02:23:21;61949.38;;;13.76;100.00
50430;BME280;36359;41.556;-8.418;2023-11-19T02:26:00;61967.50;;;13.96;100.00
50430;BME280;36359;41.556;-8.418;2023-11-19T02:28:27;62007.09;;;14.34;100.00
50430;BME280;36359;41.556;-8.418;2023-11-19T02:30:53;61999.63;;;14.24;100.00
50430;BME280;36359;41.556;-8.418;2023-11-19T02:33:19;61985.13;;;14.16;100.00
50430;BME280;36359;41.556;-8.418;2023-11-19T02:35:45;62042.38;;;14.70;100.00
50430;BME280;36359;41.556;-8.418;2023-11-19T02:38:10;62055.78;;;14.81;100.00
50430;BME280;36359;41.556;-8.418;2023-11-19T02:40:36;62049.34;;;14.77;100.00
50430;BME280;36359;41.556;-8.418;2023-11-19T02:43:02;62071.28;;;14.95;100.00
50430;BME280;36359;41.556;-8.418;2023-11-19T02:45:30;62044.00;;;14.69;100.00
50430;BME280;36359;41.556;-8.418;2023-11-19T02:47:56;62033.81;;;14.62;100.00
50430;BME280;36359;41.556;-8.418;2023-11-19T02:50:22;62009.75;;;14.37;100.00
50430;BME280;36359;41.556;-8.418;2023-11-19T02:52:55;61976.59;;;14.05;100.00
50430;BME280;36359;41.556;-8.418;2023-11-19T02:55:21;61988.94;;;14.14;100.00
50430;BME280;36359;41.556;-8.418;2023-11-19T02:57:49;61985.13;;;14.16;100.00
50430;BME280;36359;41.556;-8.418;2023-11-19T03:00:19;62005.50;;;14.32;100.00
50430;BME280;36359;41.556;-8.418;2023-11-19T03:02:49;62011.91;;;14.39;100.00
50430;BME280;36359;41.556;-8.418;2023-11-19T03:05:25;61966.97;;;13.98;100.00
50430;BME280;36359;41.556;-8.418;2023-11-19T03:07:51;61960.03;;;13.89;100.00
50430;BME280;36359;41.556;-8.418;2023-11-19T03:10:17;61963.25;;;13.92;100.00
50430;BME280;36359;41.556;-8.418;2023-11-19T03:12:43;61986.75;;;14.15;100.00
50430;BME280;36359;41.556;-8.418;2023-11-19T03:15:09;62012.97;;;14.40;100.00
50430;BME280;36359;41.556;-8.418;2023-11-19T03:17:39;62025.28;;;14.49;100.00
50430;BME280;36359;41.556;-8.418;2023-11-19T03:20:06;62006.00;;;14.36;100.00
50430;BME280;36359;41.556;-8.418;2023-11-19T03:22:36;61978.19;;;14.09;100.00
50430;BME280;36359;41.556;-8.418;2023-11-19T03:25:02;61977.16;;;14.03;100.00
50430;BME280;36359;41.556;-8.418;2023-11-19T03:27:28;61972.34;;;14.01;100.00
50430;BME280;36359;41.556;-8.418;2023-11-19T03:29:53;61968.03;;;13.97;100.00
50430;BME280;36359;41.556;-8.418;2023-11-19T03:32:19;61961.06;;;13.93;100.00
50430;BME280;36359;41.556;-8.418;2023-11-19T03:34:45;61968.03;;;13.97;100.00
50430;BME280;36359;41.556;-8.418;2023-11-19T03:37:11;61947.75;;;13.77;100.00
50430;BME280;36359;41.556;-8.418;2023-11-19T03:39:37;61957.38;;;13.86;100.00
50430;BME280;36359;41.556;-8.418;2023-11-19T03:42:03;61959.47;;;13.91;100.00
50430;BME280;36359;41.556;-8.418;2023-11-19T03:44:29;61960.53;;;13.92;100.00
50430;BME280;36359;41.556;-8.418;2023-11-19T03:46:55;61951.97;;;13.86;100.00
50430;BME280;36359;41.556;-8.418;2023-11-19T03:49:20;61956.31;;;13.83;100.00
50430;BME280;36359;41.556;-8.418;2023-11-19T03:51:46;61953.59;;;13.85;100.00
50430;BME280;36359;41.556;-8.418;2023-11-19T03:54:12;61977.09;;;14.08;100.00
50430;BME280;36359;41.556;-8.418;2023-11-19T03:56:38;61972.84;;;14.04;100.00
50430;BME280;36359;41.556;-8.418;2023-11-19T03:59:03;61975.53;;;14.04;100.00
50430;BME280;36359;41.556;-8.418;2023-11-19T04:01:32;61979.84;;;14.05;100.00
50430;BME280;36359;41.556;-8.418;2023-11-19T04:03:58;61975.03;;;14.01;100.00
50430;BME280;36359;41.556;-8.418;2023-11-19T04:06:25;61975.00;;;14.03;100.00
50430;BME280;36359;41.556;-8.418;2023-11-19T04:08:51;61980.38;;;14.06;100.00
50430;BME280;36359;41.556;-8.418;2023-11-19T04:11:17;61986.72;;;14.17;100.00
50430;BME280;36359;41.556;-8.418;2023-11-19T04:13:42;61973.41;;;13.99;100.00
50430;BME280;36359;41.556;-8.418;2023-11-19T04:16:09;61990.50;;;14.21;100.00
50430;BME280;36359;41.556;-8.418;2023-11-19T04:18:35;61998.00;;;14.25;100.00
50430;BME280;36359;41.556;-8.418;2023-11-19T04:21:01;62024.19;;;14.53;100.00
50430;BME280;36359;41.556;-8.418;2023-11-19T04:23:27;62040.81;;;14.64;100.00
50430;BME280;36359;41.556;-8.418;2023-11-19T04:25:52;62046.16;;;14.71;100.00
50430;BME280;36359;41.556;-8.418;2023-11-19T04:28:19;62098.09;;;15.18;100.00
50430;BME280;36359;41.556;-8.418;2023-11-19T04:30:45;62089.53;;;15.10;100.00
50430;BME280;36359;41.556;-8.418;2023-11-19T04:33:11;62069.19;;;14.91;100.00
50430;BME280;36359;41.556;-8.418;2023-11-19T04:35:36;62000.63;;;14.30;100.00
50430;BME280;36359;41.556;-8.418;2023-11-19T04:38:02;62037.59;;;14.63;100.00
50430;BME280;36359;41.556;-8.418;2023-11-19T04:40:28;61991.03;;;14.19;100.00
50430;BME280;36359;41.556;-8.418;2023-11-19T04:42:54;61952.00;;;13.84;100.00
50430;BME280;36359;41.556;-8.418;2023-11-19T04:45:19;61969.66;;;13.98;100.00
50430;BME280;36359;41.556;-8.418;2023-11-19T04:47:45;61956.81;;;13.89;100.00
50430;BME280;36359;41.556;-8.418;2023-11-19T04:50:11;61951.47;;;13.81;100.00
50430;BME280;36359;41.556;-8.418;2023-11-19T04:52:38;61972.34;;;14.01;100.00
50430;BME280;36359;41.556;-8.418;2023-11-19T04:55:06;61994.28;;;14.19;100.00
50430;BME280;36359;41.556;-8.418;2023-11-19T04:57:32;61948.25;;;13.80;100.00
50430;BME280;36359;41.556;-8.418;2023-11-19T04:59:58;61976.59;;;14.05;100.00
50430;BME280;36359;41.556;-8.418;2023-11-19T05:02:24;61942.94;;;13.73;100.00
50430;BME280;36359;41.556;-8.418;2023-11-19T05:04:50;61971.81;;;14.00;100.00
50430;BME280;36359;41.556;-8.418;2023-11-19T05:07:16;61940.81;;;13.71;100.00
50430;BME280;36359;41.556;-8.418;2023-11-19T05:09:41;61952.53;;;13.84;100.00
50430;BME280;36359;41.556;-8.418;2023-11-19T05:12:08;61984.63;;;14.13;100.00
50430;BME280;36359;41.556;-8.418;2023-11-19T05:14:37;62009.25;;;14.34;100.00
50430;BME280;36359;41.556;-8.418;2023-11-19T05:17:04;62030.63;;;14.59;100.00
50430;BME280;36359;41.556;-8.418;2023-11-19T05:19:29;61996.34;;;14.26;100.00
50430;BME280;36359;41.556;-8.418;2023-11-19T05:21:55;61974.47;;;14.03;100.00
50430;BME280;36359;41.556;-8.418;2023-11-19T05:24:21;61953.13;;;13.80;100.00
50430;BME280;36359;41.556;-8.418;2023-11-19T05:26:46;61936.53;;;13.64;100.00
50430;BME280;36359;41.556;-8.418;2023-11-19T05:29:12;61924.75;;;13.55;100.00
50430;BME280;36359;41.556;-8.418;2023-11-19T05:31:38;61930.13;;;13.58;100.00
50430;BME280;36359;41.556;-8.418;2023-11-19T05:34:04;61933.81;;;13.67;100.00
50430;BME280;36359;41.556;-8.418;2023-11-19T05:36:30;61920.47;;;13.51;100.00
50430;BME280;36359;41.556;-8.418;2023-11-19T05:38:55;61929.06;;;13.57;100.00
50430;BME280;36359;41.556;-8.418;2023-11-19T05:41:21;61954.69;;;13.84;100.00
50430;BME280;36359;41.556;-8.418;2023-11-19T05:43:47;62007.63;;;14.35;100.00
50430;BME280;36359;41.556;-8.418;2023-11-19T05:46:13;62038.69;;;14.62;100.00
50430;BME280;36359;41.556;-8.418;2023-11-19T05:48:38;62023.66;;;14.50;100.00
50430;BME280;36359;41.556;-8.418;2023-11-19T05:51:05;62057.38;;;14.82;100.00
50430;BME280;36359;41.556;-8.418;2023-11-19T05:53:31;62051.50;;;14.76;100.00
50430;BME280;36359;41.556;-8.418;2023-11-19T05:55:57;62026.91;;;14.53;100.00
50430;BME280;36359;41.556;-8.418;2023-11-19T05:58:26;61985.16;;;14.13;100.00
50430;BME280;36359;41.556;-8.418;2023-11-19T06:00:55;61935.97;;;13.66;100.00
50430;BME280;36359;41.556;-8.418;2023-11-19T06:03:21;61942.94;;;13.70;100.00
50430;BME280;36359;41.556;-8.418;2023-11-19T06:05:48;61948.81;;;13.78;100.00
50430;BME280;36359;41.556;-8.418;2023-11-19T06:08:14;61936.50;;;13.67;100.00
50430;BME280;36359;41.556;-8.418;2023-11-19T06:10:44;61938.63;;;13.71;100.00
50430;BME280;36359;41.556;-8.418;2023-11-19T06:13:12;61939.19;;;13.69;100.00
50430;BME280;36359;41.556;-8.418;2023-11-19T06:15:41;61938.13;;;13.68;100.00
50430;BME280;36359;41.556;-8.418;2023-11-19T06:18:07;61982.47;;;14.13;100.00
50430;BME280;36359;41.556;-8.418;2023-11-19T06:20:34;62020.94;;;14.50;100.00
50430;BME280;36359;41.556;-8.418;2023-11-19T06:23:00;62028.50;;;14.54;100.00
50430;BME280;36359;41.556;-8.418;2023-11-19T06:25:26;62001.19;;;14.28;100.00
50430;BME280;36359;41.556;-8.418;2023-11-19T06:27:52;62004.91;;;14.35;100.00
50430;BME280;36359;41.556;-8.418;2023-11-19T06:30:18;61976.63;;;14.02;100.00
50430;BME280;36359;41.556;-8.418;2023-11-19T06:32:45;61963.78;;;13.93;100.00
50430;BME280;36359;41.556;-8.418;2023-11-19T06:35:11;61992.63;;;14.20;100.00
50430;BME280;36359;41.556;-8.418;2023-11-19T06:37:40;61998.00;;;14.25;100.00
50430;BME280;36359;41.556;-8.418;2023-11-19T06:40:06;61970.72;;;13.99;100.00
50430;BME280;36359;41.556;-8.418;2023-11-19T06:42:35;61986.72;;;14.17;100.00
50430;BME280;36359;41.556;-8.418;2023-11-19T06:45:01;61977.69;;;14.06;100.00
50430;BME280;36359;41.556;-8.418;2023-11-19T06:47:27;61969.59;;;14.03;100.00
50430;BME280;36359;41.556;-8.418;2023-11-19T06:49:54;61949.31;;;13.81;100.00
50430;BME280;36359;41.556;-8.418;2023-11-19T06:52:20;61939.72;;;13.70;100.00
50430;BME280;36359;41.556;-8.418;2023-11-19T06:54:46;61927.97;;;13.56;100.00
50430;BME280;36359;41.556;-8.418;2023-11-19T06:57:12;61919.44;;;13.48;100.00
50430;BME280;36359;41.556;-8.418;2023-11-19T06:59:38;61913.53;;;13.45;100.00
50430;BME280;36359;41.556;-8.418;2023-11-19T07:02:04;61954.72;;;13.81;100.00
50430;BME280;36359;41.556;-8.418;2023-11-19T07:04:31;61977.16;;;14.03;100.00
50430;BME280;36359;41.556;-8.418;2023-11-19T07:06:57;61984.66;;;14.10;100.00
50430;BME280;36359;41.556;-8.418;2023-11-19T07:09:22;61945.56;;;13.78;100.00
50430;BME280;36359;41.556;-8.418;2023-11-19T07:11:48;61941.84;;;13.74;100.00
50430;BME280;36359;41.556;-8.418;2023-11-19T07:14:17;62002.84;;;14.27;100.00
50430;BME280;36359;41.556;-8.418;2023-11-19T07:16:43;62018.88;;;14.43;100.00
50430;BME280;36359;41.556;-8.418;2023-11-19T07:19:09;62037.09;;;14.60;100.00
50430;BME280;36359;41.556;-8.418;2023-11-19T07:21:35;62009.19;;;14.39;100.00
50430;BME280;36359;41.556;-8.418;2023-11-19T07:24:05;62021.00;;;14.47;100.00
50430;BME280;36359;41.556;-8.418;2023-11-19T07:26:31;62009.25;;;14.34;100.00
50430;BME280;36359;41.556;-8.418;2023-11-19T07:28:57;61994.22;;;14.24;100.00
50430;BME280;36359;41.556;-8.418;2023-11-19T07:31:24;61977.16;;;14.03;100.00
50430;BME280;36359;41.556;-8.418;2023-11-19T07:33:49;61983.53;;;14.14;100.00
50430;BME280;36359;41.556;-8.418;2023-11-19T07:36:15;61972.34;;;14.01;100.00
50430;BME280;36359;41.556;-8.418;2023-11-19T07:38:42;61949.84;;;13.82;100.00
50430;BME280;36359;41.556;-8.418;2023-11-19T07:41:08;61884.16;;;13.14;100.00
50430;BME280;36359;41.556;-8.418;2023-11-19T07:43:43;61919.38;;;13.53;100.00
50430;BME280;36359;41.556;-8.418;2023-11-19T07:46:13;61938.66;;;13.69;100.00
50430;BME280;36359;41.556;-8.418;2023-11-19T07:48:40;61892.72;;;13.22;100.00
50430;BME280;36359;41.556;-8.418;2023-11-19T07:51:06;61888.38;;;13.23;100.00
50430;BME280;36359;41.556;-8.418;2023-11-19T07:53:32;61894.84;;;13.27;100.00
50430;BME280;36359;41.556;-8.418;2023-11-19T07:56:02;61880.91;;;13.16;100.00
50430;BME280;36359;41.556;-8.418;2023-11-19T07:58:28;61878.28;;;13.08;100.00
50430;BME280;36359;41.556;-8.418;2023-11-19T08:00:54;61882.53;;;13.15;100.00
50430;BME280;36359;41.556;-8.418;2023-11-19T08:03:20;61901.28;;;13.30;100.00
50430;BME280;36359;41.556;-8.418;2023-11-19T08:05:48;61898.00;;;13.32;100.00
50430;BME280;36359;41.556;-8.418;2023-11-19T08:08:14;61896.97;;;13.29;100.00
50430;BME280;36359;41.556;-8.418;2023-11-19T08:10:40;61900.69;;;13.35;100.00
50430;BME280;36359;41.556;-8.418;2023-11-19T08:13:06;61899.63;;;13.31;100.00
50430;BME280;36359;41.556;-8.418;2023-11-19T08:15:33;61884.13;;;13.16;100.00
50430;BME280;36359;41.556;-8.418;2023-11-19T08:17:58;61865.44;;;12.99;100.00
50430;BME280;36359;41.556;-8.418;2023-11-19T08:20:24;61861.19;;;12.92;100.00
50430;BME280;36359;41.556;-8.418;2023-11-19T08:22:50;61879.88;;;13.10;100.00
50430;BME280;36359;41.556;-8.418;2023-11-19T08:25:15;61875.06;;;13.08;100.00
50430;BME280;36359;41.556;-8.418;2023-11-19T08:27:41;61936.53;;;13.64;100.00
50430;BME280;36359;41.556;-8.418;2023-11-19T08:30:08;61953.13;;;13.80;100.00
50430;BME280;36359;41.556;-8.418;2023-11-19T08:32:35;61974.44;;;14.05;100.00
50430;BME280;36359;41.556;-8.418;2023-11-19T08:35:01;62038.66;;;14.64;100.00
50430;BME280;36359;41.556;-8.418;2023-11-19T08:37:27;62007.09;;;14.31;100.00
50430;BME280;36359;41.556;-8.418;2023-11-19T08:39:53;61993.72;;;14.21;100.00
50430;BME280;36359;41.556;-8.418;2023-11-19T08:42:19;61935.97;;;13.69;100.00
50430;BME280;36359;41.556;-8.418;2023-11-19T08:44:49;61983.53;;;14.14;100.00
50430;BME280;36359;41.556;-8.418;2023-11-19T08:47:16;62004.38;;;14.34;100.00
50430;BME280;36359;41.556;-8.418;2023-11-19T08:49:45;61957.38;;;13.86;100.00
50430;BME280;36359;41.556;-8.418;2023-11-19T08:52:11;61966.47;;;13.93;100.00
50430;BME280;36359;41.556;-8.418;2023-11-19T08:54:37;61935.97;;;13.69;100.00
50430;BME280;36359;41.556;-8.418;2023-11-19T08:57:03;62009.25;;;14.34;100.00
50430;BME280;36359;41.556;-8.418;2023-11-19T08:59:30;61959.50;;;13.89;100.00
50430;BME280;36359;41.556;-8.418;2023-11-19T09:01:55;61957.91;;;13.84;100.00
50430;BME280;36359;41.556;-8.418;2023-11-19T09:04:21;61967.50;;;13.99;100.00
50430;BME280;36359;41.556;-8.418;2023-11-19T09:06:50;61971.25;;;14.00;100.00
50430;BME280;36359;41.556;-8.418;2023-11-19T09:09:16;61980.91;;;14.09;100.00
50430;BME280;36359;41.556;-8.418;2023-11-19T09:11:42;61948.78;;;13.81;100.00
50430;BME280;36359;41.556;-8.418;2023-11-19T09:14:08;61978.19;;;14.09;100.00
50430;BME280;36359;41.556;-8.418;2023-11-19T09:16:33;62017.22;;;14.46;100.00
50430;BME280;36359;41.556;-8.418;2023-11-19T09:19:00;62022.09;;;14.46;100.00
50430;BME280;36359;41.556;-8.418;2023-11-19T09:21:26;62011.91;;;14.39;100.00
50430;BME280;36359;41.556;-8.418;2023-11-19T09:23:52;62012.44;;;14.39;100.00
50430;BME280;36359;41.556;-8.418;2023-11-19T09:26:19;62014.59;;;14.39;100.00
50430;BME280;36359;41.556;-8.418;2023-11-19T09:28:45;62015.66;;;14.40;100.00
50430;BME280;36359;41.556;-8.418;2023-11-19T09:31:17;61988.88;;;14.19;100.00
50430;BME280;36359;41.556;-8.418;2023-11-19T09:33:44;62030.63;;;14.57;100.00
50430;BME280;36359;41.556;-8.418;2023-11-19T09:36:12;62015.13;;;14.42;100.00
50430;BME280;36359;41.556;-8.418;2023-11-19T09:38:40;61961.09;;;13.90;100.00
50430;BME280;36359;41.556;-8.418;2023-11-19T09:41:06;61952.00;;;13.84;100.00
50430;BME280;36359;41.556;-8.418;2023-11-19T09:43:35;61976.59;;;14.05;100.00
50430;BME280;36359;41.556;-8.418;2023-11-19T09:46:05;61980.91;;;14.09;100.00
50430;BME280;36359;41.556;-8.418;2023-11-19T09:48:35;61982.50;;;14.08;100.00
50430;BME280;36359;41.556;-8.418;2023-11-19T09:51:02;61937.63;;;13.65;100.00
50430;BME280;36359;41.556;-8.418;2023-11-19T09:53:30;61930.13;;;13.58;100.00
50430;BME280;36359;41.556;-8.418;2023-11-19T09:55:56;61967.53;;;13.94;100.00
50430;BME280;36359;41.556;-8.418;2023-11-19T09:58:22;61960.50;;;13.95;100.00
50430;BME280;36359;41.556;-8.418;2023-11-19T10:00:49;61950.97;;;13.78;100.00
50430;BME280;36359;41.556;-8.418;2023-11-19T10:03:17;62016.69;;;14.46;100.00
50430;BME280;36359;41.556;-8.418;2023-11-19T10:05:43;62000.13;;;14.27;100.00
50430;BME280;36359;41.556;-8.418;2023-11-19T10:08:09;61982.50;;;14.08;100.00
50430;BME280;36359;41.556;-8.418;2023-11-19T10:10:37;61981.94;;;14.10;100.00
50430;BME280;36359;41.556;-8.418;2023-11-19T10:13:03;61984.59;;;14.15;100.00
50430;BME280;36359;41.556;-8.418;2023-11-19T10:15:33;61993.13;;;14.23;100.00
50430;BME280;36359;41.556;-8.418;2023-11-19T10:18:01;61989.97;;;14.18;100.00
50430;BME280;36359;41.556;-8.418;2023-11-19T10:20:26;61998.53;;;14.26;100.00
50430;BME280;36359;41.556;-8.418;2023-11-19T10:22:53;61996.91;;;14.27;100.00
50430;BME280;36359;41.556;-8.418;2023-11-19T10:25:29;62008.69;;;14.36;100.00
50430;BME280;36359;41.556;-8.418;2023-11-19T10:27:56;62015.66;;;14.42;100.00
50430;BME280;36359;41.556;-8.418;2023-11-19T10:30:23;61995.31;;;14.23;100.00
50430;BME280;36359;41.556;-8.418;2023-11-19T10:33:09;62014.59;;;14.41;100.00
50430;BME280;36359;41.556;-8.418;2023-11-19T10:35:36;62006.03;;;14.30;100.00
50430;BME280;36359;41.556;-8.418;2023-11-19T10:38:15;62022.03;;;14.51;100.00
50430;BME280;36359;41.556;-8.418;2023-11-19T10:40:41;62037.09;;;14.60;100.00
50430;BME280;36359;41.556;-8.418;2023-11-19T10:43:08;62040.25;;;14.68;100.00
50430;BME280;36359;41.556;-8.418;2023-11-19T10:45:35;62039.72;;;14.68;100.00
50430;BME280;36359;41.556;-8.418;2023-11-19T10:48:02;62036.56;;;14.60;100.00
50430;BME280;36359;41.556;-8.418;2023-11-19T10:50:28;61984.06;;;14.15;100.00
50430;BME280;36359;41.556;-8.418;2023-11-19T10:52:57;62018.34;;;14.42;100.00
50430;BME280;36359;41.556;-8.418;2023-11-19T10:55:30;62032.22;;;14.58;100.00
50430;BME280;36359;41.556;-8.418;2023-11-19T10:58:02;62033.88;;;14.57;100.00
50430;BME280;36359;41.556;-8.418;2023-11-19T11:03:24;62049.88;;;14.77;100.00
50430;BME280;36359;41.556;-8.418;2023-11-19T11:05:51;62071.84;;;14.93;100.00
50430;BME280;36359;41.556;-8.418;2023-11-19T11:08:19;62118.91;;;15.41;100.00
50430;BME280;36359;41.556;-8.418;2023-11-19T11:10:48;62097.00;;;15.17;100.00
50430;BME280;36359;41.556;-8.418;2023-11-19T11:13:18;62079.84;;;15.06;100.00
50430;BME280;36359;41.556;-8.418;2023-11-19T11:15:47;62034.38;;;14.60;100.00
50430;BME280;36359;41.556;-8.418;2023-11-19T11:18:13;62035.97;;;14.62;100.00
50430;BME280;36359;41.556;-8.418;2023-11-19T11:20:40;62039.72;;;14.65;100.00
50430;BME280;36359;41.556;-8.418;2023-11-19T11:25:57;62076.66;;;15.01;100.00
50430;BME280;36359;41.556;-8.418;2023-11-19T11:31:44;62179.97;;;15.99;100.00
50430;BME280;36359;41.556;-8.418;2023-11-19T11:37:05;62193.91;;;16.12;100.00
50430;BME280;36359;41.556;-8.418;2023-11-19T11:39:33;62184.78;;;16.06;100.00
50430;BME280;36359;41.556;-8.418;2023-11-19T11:45:08;62208.88;;;16.29;100.00
50430;BME280;36359;41.556;-8.418;2023-11-19T11:50:20;62192.84;;;16.11;100.00
50430;BME280;36359;41.556;-8.418;2023-11-19T11:55:51;62197.06;;;16.21;100.00
50430;BME280;36359;41.556;-8.418;2023-11-19T11:58:21;62215.34;;;16.33;100.00
50430;BME280;36359;41.556;-8.418;2023-11-19T12:00:48;62222.84;;;16.40;100.00
50430;BME280;36359;41.556;-8.418;2023-11-19T12:03:14;62230.38;;;16.45;100.00
50430;BME280;36359;41.556;-8.418;2023-11-19T12:05:41;62246.41;;;16.63;100.00
50430;BME280;36359;41.556;-8.418;2023-11-19T12:08:11;62279.69;;;16.94;100.00
50430;BME280;36359;41.556;-8.418;2023-11-19T12:10:48;62209.44;;;16.27;100.00
50430;BME280;36359;41.556;-8.418;2023-11-19T12:13:15;62231.38;;;16.51;100.00
50430;BME280;36359;41.556;-8.418;2023-11-19T12:18:30;62249.06;;;16.68;100.00
50430;BME280;36359;41.556;-8.418;2023-11-19T12:20:58;62273.22;;;16.88;100.00
50430;BME280;36359;41.556;-8.418;2023-11-19T12:23:30;62293.03;;;17.10;100.00
50430;BME280;36359;41.556;-8.418;2023-11-19T12:25:57;62317.16;;;17.33;100.00
50430;BME280;36359;41.556;-8.418;2023-11-19T12:28:23;62318.78;;;17.32;100.00
50430;BME280;36359;41.556;-8.418;2023-11-19T12:30:52;62317.75;;;17.28;100.00
50430;BME280;36359;41.556;-8.418;2023-11-19T12:33:19;62296.81;;;17.11;100.00
50430;BME280;36359;41.556;-8.418;2023-11-19T12:35:46;62285.53;;;17.02;100.00
50430;BME280;36359;41.556;-8.418;2023-11-19T12:38:23;62319.81;;;17.35;100.00
50430;BME280;36359;41.556;-8.418;2023-11-19T12:41:08;62326.28;;;17.41;100.00
50430;BME280;36359;41.556;-8.418;2023-11-19T12:43:37;62296.25;;;17.13;100.00
50430;BME280;36359;41.556;-8.418;2023-11-19T12:48:46;62323.06;;;17.38;100.00
50430;BME280;36359;41.556;-8.418;2023-11-19T12:51:12;62361.16;;;17.72;100.00
50430;BME280;36359;41.556;-8.418;2023-11-19T12:53:51;62381.03;;;17.91;100.00
50430;BME280;36359;41.556;-8.418;2023-11-19T12:56:22;62375.59;;;17.91;100.00
50430;BME280;36359;41.556;-8.418;2023-11-19T12:58:48;62401.38;;;18.13;100.00
50430;BME280;36359;41.556;-8.418;2023-11-19T13:01:18;62389.59;;;18.02;100.00
50430;BME280;36359;41.556;-8.418;2023-11-19T13:03:45;62377.78;;;17.90;100.00
50430;BME280;36359;41.556;-8.418;2023-11-19T13:06:13;62400.84;;;18.12;100.00